sensor_id;sensor_type;location;lat;lon;timestamp;P1;durP1;ratioP1;P2;durP2;ratioP2
24761;SDS011;12865;51.934;10.330;2024-03-07T00:00:07;29.23;;;23.10;;
24761;SDS011;12865;51.934;10.330;2024-03-07T00:03:01;30.63;;;21.73;;
24761;SDS011;12865;51.934;10.330;2024-03-07T00:05:47;28.90;;;23.55;;
24761;SDS011;12865;51.934;10.330;2024-03-07T00:08:32;30.58;;;24.15;;
24761;SDS011;12865;51.934;10.330;2024-03-07T00:11:18;28.15;;;23.92;;
24761;SDS011;12865;51.934;10.330;2024-03-07T00:14:04;29.38;;;22.85;;
24761;SDS011;12865;51.934;10.330;2024-03-07T00:16:51;27.08;;;22.17;;
24761;SDS011;12865;51.934;10.330;2024-03-07T00:19:38;30.00;;;22.65;;
24761;SDS011;12865;51.934;10.330;2024-03-07T00:22:24;26.60;;;21.52;;
24761;SDS011;12865;51.934;10.330;2024-03-07T00:25:12;26.83;;;21.75;;
24761;SDS011;12865;51.934;10.330;2024-03-07T00:27:59;26.42;;;21.05;;
24761;SDS011;12865;51.934;10.330;2024-03-07T00:30:48;27.10;;;21.98;;
24761;SDS011;12865;51.934;10.330;2024-03-07T00:33:34;27.10;;;22.02;;
24761;SDS011;12865;51.934;10.330;2024-03-07T00:36:20;30.27;;;23.17;;
24761;SDS011;12865;51.934;10.330;2024-03-07T00:39:06;26.02;;;20.58;;
24761;SDS011;12865;51.934;10.330;2024-03-07T00:41:57;25.77;;;21.58;;
24761;SDS011;12865;51.934;10.330;2024-03-07T00:44:42;29.25;;;23.23;;
24761;SDS011;12865;51.934;10.330;2024-03-07T00:47:28;29.83;;;22.63;;
24761;SDS011;12865;51.934;10.330;2024-03-07T00:50:14;27.75;;;23.30;;
24761;SDS011;12865;51.934;10.330;2024-03-07T00:53:00;30.25;;;23.75;;
24761;SDS011;12865;51.934;10.330;2024-03-07T00:55:46;28.65;;;22.75;;
24761;SDS011;12865;51.934;10.330;2024-03-07T00:58:31;27.75;;;21.42;;
24761;SDS011;12865;51.934;10.330;2024-03-07T01:01:17;28.75;;;22.80;;
24761;SDS011;12865;51.934;10.330;2024-03-07T01:04:04;28.90;;;24.02;;
24761;SDS011;12865;51.934;10.330;2024-03-07T01:06:50;28.00;;;23.33;;
24761;SDS011;12865;51.934;10.330;2024-03-07T01:09:36;28.52;;;23.45;;
24761;SDS011;12865;51.934;10.330;2024-03-07T01:12:22;28.95;;;23.38;;
24761;SDS011;12865;51.934;10.330;2024-03-07T01:15:09;27.27;;;22.08;;
24761;SDS011;12865;51.934;10.330;2024-03-07T01:17:56;26.23;;;23.40;;
24761;SDS011;12865;51.934;10.330;2024-03-07T01:20:42;27.13;;;23.77;;
24761;SDS011;12865;51.934;10.330;2024-03-07T01:23:28;26.58;;;23.67;;
24761;SDS011;12865;51.934;10.330;2024-03-07T01:26:14;28.25;;;25.27;;
24761;SDS011;12865;51.934;10.330;2024-03-07T01:29:00;30.15;;;25.08;;
24761;SDS011;12865;51.934;10.330;2024-03-07T01:31:46;26.65;;;23.88;;
24761;SDS011;12865;51.934;10.330;2024-03-07T01:34:31;27.67;;;23.98;;
24761;SDS011;12865;51.934;10.330;2024-03-07T01:37:17;27.48;;;24.10;;
24761;SDS011;12865;51.934;10.330;2024-03-07T01:40:03;27.38;;;23.60;;
24761;SDS011;12865;51.934;10.330;2024-03-07T01:42:50;26.80;;;23.33;;
24761;SDS011;12865;51.934;10.330;2024-03-07T01:45:39;26.00;;;23.23;;
24761;SDS011;12865;51.934;10.330;2024-03-07T01:48:25;27.38;;;22.77;;
24761;SDS011;12865;51.934;10.330;2024-03-07T01:51:14;25.92;;;21.80;;
24761;SDS011;12865;51.934;10.330;2024-03-07T01:54:00;26.48;;;22.45;;
24761;SDS011;12865;51.934;10.330;2024-03-07T01:56:47;26.75;;;22.13;;
24761;SDS011;12865;51.934;10.330;2024-03-07T01:59:33;25.80;;;22.58;;
24761;SDS011;12865;51.934;10.330;2024-03-07T02:02:21;26.67;;;22.25;;
24761;SDS011;12865;51.934;10.330;2024-03-07T02:05:07;24.73;;;21.50;;
24761;SDS011;12865;51.934;10.330;2024-03-07T02:07:53;24.65;;;20.35;;
24761;SDS011;12865;51.934;10.330;2024-03-07T02:10:39;27.67;;;21.17;;
24761;SDS011;12865;51.934;10.330;2024-03-07T02:13:25;25.88;;;20.73;;
24761;SDS011;12865;51.934;10.330;2024-03-07T02:16:11;24.77;;;19.45;;
24761;SDS011;12865;51.934;10.330;2024-03-07T02:18:57;25.90;;;20.27;;
24761;SDS011;12865;51.934;10.330;2024-03-07T02:21:45;25.27;;;19.85;;
24761;SDS011;12865;51.934;10.330;2024-03-07T02:24:30;27.48;;;20.48;;
24761;SDS011;12865;51.934;10.330;2024-03-07T02:27:17;27.75;;;21.02;;
24761;SDS011;12865;51.934;10.330;2024-03-07T02:30:03;23.65;;;20.33;;
24761;SDS011;12865;51.934;10.330;2024-03-07T02:32:49;27.67;;;20.65;;
24761;SDS011;12865;51.934;10.330;2024-03-07T02:35:37;27.17;;;20.65;;
24761;SDS011;12865;51.934;10.330;2024-03-07T02:38:23;28.70;;;20.45;;
24761;SDS011;12865;51.934;10.330;2024-03-07T02:41:09;27.70;;;20.17;;
24761;SDS011;12865;51.934;10.330;2024-03-07T02:43:55;25.42;;;20.15;;
24761;SDS011;12865;51.934;10.330;2024-03-07T02:46:40;24.88;;;18.45;;
24761;SDS011;12865;51.934;10.330;2024-03-07T02:49:26;23.98;;;19.10;;
24761;SDS011;12865;51.934;10.330;2024-03-07T02:52:12;25.20;;;19.38;;
24761;SDS011;12865;51.934;10.330;2024-03-07T02:54:58;25.80;;;19.95;;
24761;SDS011;12865;51.934;10.330;2024-03-07T02:57:43;26.98;;;20.60;;
24761;SDS011;12865;51.934;10.330;2024-03-07T03:00:29;25.73;;;20.15;;
24761;SDS011;12865;51.934;10.330;2024-03-07T03:03:15;25.88;;;19.88;;
24761;SDS011;12865;51.934;10.330;2024-03-07T03:06:00;25.60;;;19.38;;
24761;SDS011;12865;51.934;10.330;2024-03-07T03:08:46;26.42;;;20.00;;
24761;SDS011;12865;51.934;10.330;2024-03-07T03:11:33;24.88;;;18.98;;
24761;SDS011;12865;51.934;10.330;2024-03-07T03:14:19;27.73;;;19.45;;
24761;SDS011;12865;51.934;10.330;2024-03-07T03:17:05;24.48;;;19.80;;
24761;SDS011;12865;51.934;10.330;2024-03-07T03:19:54;24.77;;;19.83;;
24761;SDS011;12865;51.934;10.330;2024-03-07T03:22:40;24.85;;;19.05;;
24761;SDS011;12865;51.934;10.330;2024-03-07T03:25:29;24.85;;;18.83;;
24761;SDS011;12865;51.934;10.330;2024-03-07T03:28:15;23.67;;;19.08;;
24761;SDS011;12865;51.934;10.330;2024-03-07T03:31:02;23.05;;;19.08;;
24761;SDS011;12865;51.934;10.330;2024-03-07T03:33:49;22.20;;;18.70;;
24761;SDS011;12865;51.934;10.330;2024-03-07T03:36:36;23.73;;;19.17;;
24761;SDS011;12865;51.934;10.330;2024-03-07T03:39:21;23.20;;;18.25;;
24761;SDS011;12865;51.934;10.330;2024-03-07T03:42:08;26.60;;;20.55;;
24761;SDS011;12865;51.934;10.330;2024-03-07T03:44:55;25.65;;;20.05;;
24761;SDS011;12865;51.934;10.330;2024-03-07T03:47:41;22.58;;;18.90;;
24761;SDS011;12865;51.934;10.330;2024-03-07T03:50:27;23.35;;;20.05;;
24761;SDS011;12865;51.934;10.330;2024-03-07T03:53:13;22.58;;;19.20;;
24761;SDS011;12865;51.934;10.330;2024-03-07T03:55:59;26.55;;;20.55;;
24761;SDS011;12865;51.934;10.330;2024-03-07T03:58:45;25.20;;;19.95;;
24761;SDS011;12865;51.934;10.330;2024-03-07T04:01:32;27.40;;;20.35;;
24761;SDS011;12865;51.934;10.330;2024-03-07T04:04:18;24.58;;;19.63;;
24761;SDS011;12865;51.934;10.330;2024-03-07T04:07:03;27.33;;;20.63;;
24761;SDS011;12865;51.934;10.330;2024-03-07T04:09:49;27.17;;;20.85;;
24761;SDS011;12865;51.934;10.330;2024-03-07T04:12:35;26.10;;;21.35;;
24761;SDS011;12865;51.934;10.330;2024-03-07T04:15:22;25.95;;;21.33;;
24761;SDS011;12865;51.934;10.330;2024-03-07T04:18:12;28.55;;;21.02;;
24761;SDS011;12865;51.934;10.330;2024-03-07T04:20:57;25.65;;;20.98;;
24761;SDS011;12865;51.934;10.330;2024-03-07T04:23:44;27.20;;;20.70;;
24761;SDS011;12865;51.934;10.330;2024-03-07T04:26:31;26.08;;;20.63;;
24761;SDS011;12865;51.934;10.330;2024-03-07T04:29:17;26.90;;;22.00;;
24761;SDS011;12865;51.934;10.330;2024-03-07T04:32:03;29.05;;;22.13;;
24761;SDS011;12865;51.934;10.330;2024-03-07T04:34:49;27.60;;;22.83;;
24761;SDS011;12865;51.934;10.330;2024-03-07T04:37:35;33.35;;;24.08;;
24761;SDS011;12865;51.934;10.330;2024-03-07T04:40:23;32.55;;;24.35;;
24761;SDS011;12865;51.934;10.330;2024-03-07T04:43:09;33.28;;;26.00;;
24761;SDS011;12865;51.934;10.330;2024-03-07T04:45:55;38.67;;;26.27;;
24761;SDS011;12865;51.934;10.330;2024-03-07T04:48:40;34.03;;;25.80;;
24761;SDS011;12865;51.934;10.330;2024-03-07T04:51:27;32.78;;;25.17;;
24761;SDS011;12865;51.934;10.330;2024-03-07T04:54:13;33.78;;;25.80;;
24761;SDS011;12865;51.934;10.330;2024-03-07T04:56:59;36.72;;;25.73;;
24761;SDS011;12865;51.934;10.330;2024-03-07T04:59:45;33.42;;;25.77;;
24761;SDS011;12865;51.934;10.330;2024-03-07T05:02:30;34.40;;;25.38;;
24761;SDS011;12865;51.934;10.330;2024-03-07T05:05:16;33.97;;;26.23;;
24761;SDS011;12865;51.934;10.330;2024-03-07T05:08:07;34.40;;;26.45;;
24761;SDS011;12865;51.934;10.330;2024-03-07T05:10:52;38.22;;;27.13;;
24761;SDS011;12865;51.934;10.330;2024-03-07T05:13:38;37.75;;;28.35;;
24761;SDS011;12865;51.934;10.330;2024-03-07T05:16:24;36.30;;;26.77;;
24761;SDS011;12865;51.934;10.330;2024-03-07T05:19:10;38.25;;;28.20;;
24761;SDS011;12865;51.934;10.330;2024-03-07T05:21:56;36.80;;;27.88;;
24761;SDS011;12865;51.934;10.330;2024-03-07T05:24:42;37.72;;;26.38;;
24761;SDS011;12865;51.934;10.330;2024-03-07T05:27:28;37.88;;;27.05;;
24761;SDS011;12865;51.934;10.330;2024-03-07T05:30:15;39.53;;;27.77;;
24761;SDS011;12865;51.934;10.330;2024-03-07T05:33:01;36.75;;;26.65;;
24761;SDS011;12865;51.934;10.330;2024-03-07T05:35:47;36.80;;;26.67;;
24761;SDS011;12865;51.934;10.330;2024-03-07T05:38:32;38.58;;;25.77;;
24761;SDS011;12865;51.934;10.330;2024-03-07T05:41:18;37.25;;;28.92;;
24761;SDS011;12865;51.934;10.330;2024-03-07T05:44:04;35.47;;;25.42;;
24761;SDS011;12865;51.934;10.330;2024-03-07T05:46:54;38.88;;;27.73;;
24761;SDS011;12865;51.934;10.330;2024-03-07T05:49:40;36.22;;;28.02;;
24761;SDS011;12865;51.934;10.330;2024-03-07T05:52:25;39.58;;;27.67;;
24761;SDS011;12865;51.934;10.330;2024-03-07T05:55:11;36.88;;;27.50;;
24761;SDS011;12865;51.934;10.330;2024-03-07T05:57:57;36.67;;;27.33;;
24761;SDS011;12865;51.934;10.330;2024-03-07T06:00:43;36.22;;;27.77;;
24761;SDS011;12865;51.934;10.330;2024-03-07T06:03:31;36.67;;;27.77;;
24761;SDS011;12865;51.934;10.330;2024-03-07T06:06:17;38.17;;;27.65;;
24761;SDS011;12865;51.934;10.330;2024-03-07T06:09:03;38.70;;;28.08;;
24761;SDS011;12865;51.934;10.330;2024-03-07T06:11:59;39.65;;;28.80;;
24761;SDS011;12865;51.934;10.330;2024-03-07T06:14:45;34.67;;;26.90;;
24761;SDS011;12865;51.934;10.330;2024-03-07T06:17:32;39.25;;;28.10;;
24761;SDS011;12865;51.934;10.330;2024-03-07T06:20:18;36.10;;;28.17;;
24761;SDS011;12865;51.934;10.330;2024-03-07T06:23:10;42.08;;;28.00;;
24761;SDS011;12865;51.934;10.330;2024-03-07T06:26:01;38.28;;;28.80;;
24761;SDS011;12865;51.934;10.330;2024-03-07T06:28:51;37.67;;;28.15;;
24761;SDS011;12865;51.934;10.330;2024-03-07T06:31:37;38.38;;;27.95;;
24761;SDS011;12865;51.934;10.330;2024-03-07T06:34:23;41.47;;;28.98;;
24761;SDS011;12865;51.934;10.330;2024-03-07T06:37:08;37.38;;;29.13;;
24761;SDS011;12865;51.934;10.330;2024-03-07T06:39:54;39.38;;;29.88;;
24761;SDS011;12865;51.934;10.330;2024-03-07T06:42:40;40.95;;;29.58;;
24761;SDS011;12865;51.934;10.330;2024-03-07T06:45:25;41.47;;;29.65;;
24761;SDS011;12865;51.934;10.330;2024-03-07T06:48:11;42.45;;;30.95;;
24761;SDS011;12865;51.934;10.330;2024-03-07T06:50:59;40.90;;;31.40;;
24761;SDS011;12865;51.934;10.330;2024-03-07T06:53:45;43.47;;;32.17;;
24761;SDS011;12865;51.934;10.330;2024-03-07T06:56:35;44.85;;;33.38;;
24761;SDS011;12865;51.934;10.330;2024-03-07T06:59:21;43.55;;;31.98;;
24761;SDS011;12865;51.934;10.330;2024-03-07T07:02:07;50.42;;;35.10;;
24761;SDS011;12865;51.934;10.330;2024-03-07T07:04:53;41.92;;;32.45;;
24761;SDS011;12865;51.934;10.330;2024-03-07T07:07:39;41.83;;;30.38;;
24761;SDS011;12865;51.934;10.330;2024-03-07T07:13:15;40.47;;;29.35;;
24761;SDS011;12865;51.934;10.330;2024-03-07T07:16:00;39.78;;;30.17;;
24761;SDS011;12865;51.934;10.330;2024-03-07T07:18:46;44.40;;;30.70;;
24761;SDS011;12865;51.934;10.330;2024-03-07T07:21:32;39.08;;;30.25;;
24761;SDS011;12865;51.934;10.330;2024-03-07T07:24:18;43.20;;;30.45;;
24761;SDS011;12865;51.934;10.330;2024-03-07T07:27:04;38.35;;;29.05;;
24761;SDS011;12865;51.934;10.330;2024-03-07T07:29:50;47.13;;;31.85;;
24761;SDS011;12865;51.934;10.330;2024-03-07T07:32:35;44.65;;;31.05;;
24761;SDS011;12865;51.934;10.330;2024-03-07T07:35:21;46.70;;;30.60;;
24761;SDS011;12865;51.934;10.330;2024-03-07T07:38:07;46.55;;;32.67;;
24761;SDS011;12865;51.934;10.330;2024-03-07T07:40:55;45.42;;;32.50;;
24761;SDS011;12865;51.934;10.330;2024-03-07T07:43:41;44.42;;;29.73;;
24761;SDS011;12865;51.934;10.330;2024-03-07T07:46:27;42.88;;;30.55;;
24761;SDS011;12865;51.934;10.330;2024-03-07T07:49:12;42.90;;;31.50;;
24761;SDS011;12865;51.934;10.330;2024-03-07T07:51:58;44.30;;;31.80;;
24761;SDS011;12865;51.934;10.330;2024-03-07T07:54:44;44.75;;;31.58;;
24761;SDS011;12865;51.934;10.330;2024-03-07T07:57:29;49.05;;;34.42;;
24761;SDS011;12865;51.934;10.330;2024-03-07T08:00:15;48.08;;;31.15;;
24761;SDS011;12865;51.934;10.330;2024-03-07T08:03:08;42.88;;;32.13;;
24761;SDS011;12865;51.934;10.330;2024-03-07T08:05:54;48.58;;;32.63;;
24761;SDS011;12865;51.934;10.330;2024-03-07T08:08:40;51.95;;;32.63;;
24761;SDS011;12865;51.934;10.330;2024-03-07T08:11:26;48.45;;;33.63;;
24761;SDS011;12865;51.934;10.330;2024-03-07T08:14:11;54.47;;;34.00;;
24761;SDS011;12865;51.934;10.330;2024-03-07T08:16:57;59.88;;;34.03;;
24761;SDS011;12865;51.934;10.330;2024-03-07T08:19:43;58.75;;;34.85;;
24761;SDS011;12865;51.934;10.330;2024-03-07T08:22:28;54.72;;;33.83;;
24761;SDS011;12865;51.934;10.330;2024-03-07T08:25:15;60.10;;;33.85;;
24761;SDS011;12865;51.934;10.330;2024-03-07T08:28:01;56.97;;;32.58;;
24761;SDS011;12865;51.934;10.330;2024-03-07T08:30:47;60.17;;;33.85;;
24761;SDS011;12865;51.934;10.330;2024-03-07T08:33:32;58.05;;;33.58;;
24761;SDS011;12865;51.934;10.330;2024-03-07T08:36:18;68.47;;;35.08;;
24761;SDS011;12865;51.934;10.330;2024-03-07T08:39:04;55.35;;;33.15;;
24761;SDS011;12865;51.934;10.330;2024-03-07T08:41:49;62.38;;;32.97;;
24761;SDS011;12865;51.934;10.330;2024-03-07T08:44:35;57.67;;;33.17;;
24761;SDS011;12865;51.934;10.330;2024-03-07T08:47:21;60.95;;;33.03;;
24761;SDS011;12865;51.934;10.330;2024-03-07T08:50:06;67.78;;;33.95;;
24761;SDS011;12865;51.934;10.330;2024-03-07T08:52:53;74.80;;;34.88;;
24761;SDS011;12865;51.934;10.330;2024-03-07T08:55:39;70.97;;;36.22;;
24761;SDS011;12865;51.934;10.330;2024-03-07T08:58:25;68.40;;;35.42;;
24761;SDS011;12865;51.934;10.330;2024-03-07T09:01:10;90.35;;;38.10;;
24761;SDS011;12865;51.934;10.330;2024-03-07T09:03:56;77.80;;;39.53;;
24761;SDS011;12865;51.934;10.330;2024-03-07T09:06:44;82.28;;;38.40;;
24761;SDS011;12865;51.934;10.330;2024-03-07T09:09:32;71.15;;;38.63;;
24761;SDS011;12865;51.934;10.330;2024-03-07T09:12:18;79.55;;;38.58;;
24761;SDS011;12865;51.934;10.330;2024-03-07T09:15:05;77.30;;;38.63;;
24761;SDS011;12865;51.934;10.330;2024-03-07T09:17:52;81.30;;;39.97;;
24761;SDS011;12865;51.934;10.330;2024-03-07T09:20:38;89.20;;;39.10;;
24761;SDS011;12865;51.934;10.330;2024-03-07T09:23:23;80.32;;;38.17;;
24761;SDS011;12865;51.934;10.330;2024-03-07T09:26:09;84.90;;;40.47;;
24761;SDS011;12865;51.934;10.330;2024-03-07T09:28:55;96.25;;;43.30;;
24761;SDS011;12865;51.934;10.330;2024-03-07T09:31:41;103.45;;;45.15;;
24761;SDS011;12865;51.934;10.330;2024-03-07T09:34:27;93.45;;;43.28;;
24761;SDS011;12865;51.934;10.330;2024-03-07T09:39:40;94.20;;;42.33;;
24761;SDS011;12865;51.934;10.330;2024-03-07T09:42:26;103.20;;;46.20;;
24761;SDS011;12865;51.934;10.330;2024-03-07T09:45:14;87.93;;;42.65;;
24761;SDS011;12865;51.934;10.330;2024-03-07T09:48:04;86.05;;;42.03;;
24761;SDS011;12865;51.934;10.330;2024-03-07T09:50:50;91.07;;;41.85;;
24761;SDS011;12865;51.934;10.330;2024-03-07T09:56:27;88.40;;;39.22;;
24761;SDS011;12865;51.934;10.330;2024-03-07T09:59:21;82.93;;;39.33;;
24761;SDS011;12865;51.934;10.330;2024-03-07T10:02:12;79.40;;;40.28;;
24761;SDS011;12865;51.934;10.330;2024-03-07T10:05:02;81.75;;;38.70;;
24761;SDS011;12865;51.934;10.330;2024-03-07T10:07:50;80.70;;;40.33;;
24761;SDS011;12865;51.934;10.330;2024-03-07T10:10:37;75.97;;;37.47;;
24761;SDS011;12865;51.934;10.330;2024-03-07T10:13:23;74.45;;;35.70;;
24761;SDS011;12865;51.934;10.330;2024-03-07T10:16:09;68.90;;;34.80;;
24761;SDS011;12865;51.934;10.330;2024-03-07T10:18:56;64.45;;;33.50;;
24761;SDS011;12865;51.934;10.330;2024-03-07T10:21:42;58.60;;;33.10;;
24761;SDS011;12865;51.934;10.330;2024-03-07T10:24:28;64.97;;;33.05;;
24761;SDS011;12865;51.934;10.330;2024-03-07T10:27:14;61.70;;;32.75;;
24761;SDS011;12865;51.934;10.330;2024-03-07T10:29:59;52.20;;;28.65;;
24761;SDS011;12865;51.934;10.330;2024-03-07T10:32:52;54.72;;;29.98;;
24761;SDS011;12865;51.934;10.330;2024-03-07T10:35:41;52.75;;;29.63;;
24761;SDS011;12865;51.934;10.330;2024-03-07T10:38:26;52.33;;;28.30;;
24761;SDS011;12865;51.934;10.330;2024-03-07T10:41:13;51.08;;;27.15;;
24761;SDS011;12865;51.934;10.330;2024-03-07T10:44:01;46.17;;;27.48;;
24761;SDS011;12865;51.934;10.330;2024-03-07T10:46:51;47.65;;;26.52;;
24761;SDS011;12865;51.934;10.330;2024-03-07T10:49:43;45.35;;;26.35;;
24761;SDS011;12865;51.934;10.330;2024-03-07T10:52:40;41.13;;;23.80;;
24761;SDS011;12865;51.934;10.330;2024-03-07T10:55:40;45.22;;;25.42;;
24761;SDS011;12865;51.934;10.330;2024-03-07T11:07:58;39.63;;;22.50;;
24761;SDS011;12865;51.934;10.330;2024-03-07T11:10:47;38.78;;;22.95;;
24761;SDS011;12865;51.934;10.330;2024-03-07T11:13:33;42.22;;;23.70;;
24761;SDS011;12865;51.934;10.330;2024-03-07T11:16:20;39.67;;;22.83;;
24761;SDS011;12865;51.934;10.330;2024-03-07T11:19:18;42.50;;;23.15;;
24761;SDS011;12865;51.934;10.330;2024-03-07T11:22:27;40.10;;;23.02;;
24761;SDS011;12865;51.934;10.330;2024-03-07T11:25:18;37.05;;;22.30;;
24761;SDS011;12865;51.934;10.330;2024-03-07T11:28:04;36.97;;;22.38;;
24761;SDS011;12865;51.934;10.330;2024-03-07T11:30:50;41.85;;;22.65;;
24761;SDS011;12865;51.934;10.330;2024-03-07T11:33:36;34.03;;;20.63;;
24761;SDS011;12865;51.934;10.330;2024-03-07T11:36:44;39.03;;;21.90;;
24761;SDS011;12865;51.934;10.330;2024-03-07T11:42:29;32.20;;;20.15;;
24761;SDS011;12865;51.934;10.330;2024-03-07T11:45:20;34.75;;;19.67;;
24761;SDS011;12865;51.934;10.330;2024-03-07T11:48:18;29.38;;;18.13;;
24761;SDS011;12865;51.934;10.330;2024-03-07T11:51:05;28.48;;;17.42;;
24761;SDS011;12865;51.934;10.330;2024-03-07T11:53:54;23.27;;;16.63;;
24761;SDS011;12865;51.934;10.330;2024-03-07T11:56:41;25.13;;;16.65;;
24761;SDS011;12865;51.934;10.330;2024-03-07T11:59:27;29.40;;;17.23;;
24761;SDS011;12865;51.934;10.330;2024-03-07T12:02:17;28.02;;;17.48;;
24761;SDS011;12865;51.934;10.330;2024-03-07T12:05:07;29.50;;;18.73;;
24761;SDS011;12865;51.934;10.330;2024-03-07T12:07:55;29.60;;;16.88;;
24761;SDS011;12865;51.934;10.330;2024-03-07T12:10:42;34.78;;;21.80;;
24761;SDS011;12865;51.934;10.330;2024-03-07T12:13:29;30.33;;;18.48;;
24761;SDS011;12865;51.934;10.330;2024-03-07T12:16:15;23.02;;;16.38;;
24761;SDS011;12865;51.934;10.330;2024-03-07T12:19:01;22.77;;;15.55;;
24761;SDS011;12865;51.934;10.330;2024-03-07T12:21:50;27.30;;;16.20;;
24761;SDS011;12865;51.934;10.330;2024-03-07T12:24:36;21.55;;;15.25;;
24761;SDS011;12865;51.934;10.330;2024-03-07T12:27:21;21.65;;;14.77;;
24761;SDS011;12865;51.934;10.330;2024-03-07T12:30:17;27.73;;;16.45;;
24761;SDS011;12865;51.934;10.330;2024-03-07T12:33:05;28.80;;;17.17;;
24761;SDS011;12865;51.934;10.330;2024-03-07T12:35:53;25.58;;;16.15;;
24761;SDS011;12865;51.934;10.330;2024-03-07T12:38:45;22.70;;;16.58;;
24761;SDS011;12865;51.934;10.330;2024-03-07T12:41:31;25.25;;;15.18;;
24761;SDS011;12865;51.934;10.330;2024-03-07T12:44:17;20.45;;;15.18;;
24761;SDS011;12865;51.934;10.330;2024-03-07T12:47:04;24.13;;;14.35;;
24761;SDS011;12865;51.934;10.330;2024-03-07T12:49:50;24.23;;;15.02;;
24761;SDS011;12865;51.934;10.330;2024-03-07T12:52:35;22.88;;;15.35;;
24761;SDS011;12865;51.934;10.330;2024-03-07T12:55:21;18.90;;;14.43;;
24761;SDS011;12865;51.934;10.330;2024-03-07T12:58:10;22.50;;;15.48;;
24761;SDS011;12865;51.934;10.330;2024-03-07T13:00:58;21.17;;;14.32;;
24761;SDS011;12865;51.934;10.330;2024-03-07T13:03:46;24.10;;;15.63;;
24761;SDS011;12865;51.934;10.330;2024-03-07T13:06:32;26.42;;;17.05;;
24761;SDS011;12865;51.934;10.330;2024-03-07T13:09:17;21.77;;;16.42;;
24761;SDS011;12865;51.934;10.330;2024-03-07T13:12:12;21.83;;;16.55;;
24761;SDS011;12865;51.934;10.330;2024-03-07T13:14:59;22.38;;;15.93;;
24761;SDS011;12865;51.934;10.330;2024-03-07T13:17:45;21.08;;;14.82;;
24761;SDS011;12865;51.934;10.330;2024-03-07T13:20:31;25.23;;;15.23;;
24761;SDS011;12865;51.934;10.330;2024-03-07T13:23:17;24.67;;;14.57;;
24761;SDS011;12865;51.934;10.330;2024-03-07T13:26:03;20.17;;;15.15;;
24761;SDS011;12865;51.934;10.330;2024-03-07T13:28:53;19.95;;;14.02;;
24761;SDS011;12865;51.934;10.330;2024-03-07T13:31:42;19.48;;;14.90;;
24761;SDS011;12865;51.934;10.330;2024-03-07T13:34:29;25.67;;;15.63;;
24761;SDS011;12865;51.934;10.330;2024-03-07T13:37:15;22.77;;;15.57;;
24761;SDS011;12865;51.934;10.330;2024-03-07T13:40:03;20.73;;;15.30;;
24761;SDS011;12865;51.934;10.330;2024-03-07T13:43:07;20.35;;;14.35;;
24761;SDS011;12865;51.934;10.330;2024-03-07T13:45:53;17.38;;;13.90;;
24761;SDS011;12865;51.934;10.330;2024-03-07T13:48:40;18.55;;;13.70;;
24761;SDS011;12865;51.934;10.330;2024-03-07T13:51:27;20.75;;;13.23;;
24761;SDS011;12865;51.934;10.330;2024-03-07T13:54:13;20.45;;;13.85;;
24761;SDS011;12865;51.934;10.330;2024-03-07T14:00:44;19.98;;;13.02;;
24761;SDS011;12865;51.934;10.330;2024-03-07T14:10:22;19.35;;;13.75;;
24761;SDS011;12865;51.934;10.330;2024-03-07T14:13:20;22.65;;;14.50;;
24761;SDS011;12865;51.934;10.330;2024-03-07T14:31:55;19.73;;;13.65;;
24761;SDS011;12865;51.934;10.330;2024-03-07T14:34:47;23.70;;;14.32;;
24761;SDS011;12865;51.934;10.330;2024-03-07T14:37:46;18.83;;;13.02;;
24761;SDS011;12865;51.934;10.330;2024-03-07T14:40:38;16.67;;;13.15;;
24761;SDS011;12865;51.934;10.330;2024-03-07T14:43:24;19.20;;;13.23;;
24761;SDS011;12865;51.934;10.330;2024-03-07T14:46:13;19.42;;;13.75;;
24761;SDS011;12865;51.934;10.330;2024-03-07T14:49:00;25.90;;;14.18;;
24761;SDS011;12865;51.934;10.330;2024-03-07T14:51:46;18.50;;;13.15;;
24761;SDS011;12865;51.934;10.330;2024-03-07T14:54:34;17.35;;;13.65;;
24761;SDS011;12865;51.934;10.330;2024-03-07T14:57:20;20.65;;;14.63;;
24761;SDS011;12865;51.934;10.330;2024-03-07T15:00:08;19.08;;;13.02;;
24761;SDS011;12865;51.934;10.330;2024-03-07T15:03:04;20.98;;;14.10;;
24761;SDS011;12865;51.934;10.330;2024-03-07T15:05:51;20.08;;;13.25;;
24761;SDS011;12865;51.934;10.330;2024-03-07T15:08:37;21.70;;;14.52;;
24761;SDS011;12865;51.934;10.330;2024-03-07T15:11:45;19.15;;;13.60;;
24761;SDS011;12865;51.934;10.330;2024-03-07T15:14:31;17.55;;;13.77;;
24761;SDS011;12865;51.934;10.330;2024-03-07T15:17:16;21.00;;;16.65;;
24761;SDS011;12865;51.934;10.330;2024-03-07T15:20:03;22.38;;;14.85;;
24761;SDS011;12865;51.934;10.330;2024-03-07T15:22:52;21.85;;;13.73;;
24761;SDS011;12865;51.934;10.330;2024-03-07T15:25:39;20.10;;;14.48;;
24761;SDS011;12865;51.934;10.330;2024-03-07T15:28:25;18.63;;;13.43;;
24761;SDS011;12865;51.934;10.330;2024-03-07T15:31:10;21.45;;;13.48;;
24761;SDS011;12865;51.934;10.330;2024-03-07T15:33:58;18.27;;;13.43;;
24761;SDS011;12865;51.934;10.330;2024-03-07T15:36:44;20.65;;;13.65;;
24761;SDS011;12865;51.934;10.330;2024-03-07T15:39:30;17.45;;;13.55;;
24761;SDS011;12865;51.934;10.330;2024-03-07T15:42:16;19.52;;;14.02;;
24761;SDS011;12865;51.934;10.330;2024-03-07T15:45:02;22.27;;;14.88;;
24761;SDS011;12865;51.934;10.330;2024-03-07T15:47:48;20.60;;;14.52;;
24761;SDS011;12865;51.934;10.330;2024-03-07T15:50:35;21.08;;;13.82;;
24761;SDS011;12865;51.934;10.330;2024-03-07T15:53:22;18.95;;;14.45;;
24761;SDS011;12865;51.934;10.330;2024-03-07T15:56:07;21.50;;;14.68;;
24761;SDS011;12865;51.934;10.330;2024-03-07T15:58:53;19.35;;;14.32;;
24761;SDS011;12865;51.934;10.330;2024-03-07T16:01:40;22.77;;;15.25;;
24761;SDS011;12865;51.934;10.330;2024-03-07T16:04:26;19.85;;;15.27;;
24761;SDS011;12865;51.934;10.330;2024-03-07T16:07:12;25.08;;;15.15;;
24761;SDS011;12865;51.934;10.330;2024-03-07T16:09:58;19.67;;;14.55;;
24761;SDS011;12865;51.934;10.330;2024-03-07T16:12:43;19.40;;;14.70;;
24761;SDS011;12865;51.934;10.330;2024-03-07T16:15:29;19.02;;;14.32;;
24761;SDS011;12865;51.934;10.330;2024-03-07T16:18:17;20.73;;;15.45;;
24761;SDS011;12865;51.934;10.330;2024-03-07T16:21:02;19.95;;;14.50;;
24761;SDS011;12865;51.934;10.330;2024-03-07T16:23:48;21.70;;;14.43;;
24761;SDS011;12865;51.934;10.330;2024-03-07T16:26:35;21.70;;;14.90;;
24761;SDS011;12865;51.934;10.330;2024-03-07T16:29:21;21.42;;;15.85;;
24761;SDS011;12865;51.934;10.330;2024-03-07T16:32:07;19.20;;;14.77;;
24761;SDS011;12865;51.934;10.330;2024-03-07T16:34:56;20.30;;;15.30;;
24761;SDS011;12865;51.934;10.330;2024-03-07T16:37:42;20.40;;;16.30;;
24761;SDS011;12865;51.934;10.330;2024-03-07T16:40:29;21.88;;;15.45;;
24761;SDS011;12865;51.934;10.330;2024-03-07T16:43:15;21.30;;;15.18;;
24761;SDS011;12865;51.934;10.330;2024-03-07T16:46:00;21.92;;;15.65;;
24761;SDS011;12865;51.934;10.330;2024-03-07T16:48:46;21.75;;;16.42;;